sensor_id;sensor_type;location;lat;lon;timestamp;pressure;altitude;pressure_sealevel;temperature;humidity
72896;BME280;61036;53.224;6.554;2023-02-28T00:01:01;103248.69;;;5.89;100.00
72896;BME280;61036;53.224;6.554;2023-02-28T00:03:26;103247.84;;;5.87;100.00
72896;BME280;61036;53.224;6.554;2023-02-28T00:05:52;103241.84;;;5.71;100.00
72896;BME280;61036;53.224;6.554;2023-02-28T00:08:17;103250.78;;;5.70;100.00
72896;BME280;61036;53.224;6.554;2023-02-28T00:10:43;103253.31;;;5.80;100.00
72896;BME280;61036;53.224;6.554;2023-02-28T00:13:08;103242.56;;;5.84;100.00
72896;BME280;61036;53.224;6.554;2023-02-28T00:15:34;103233.75;;;5.76;100.00
72896;BME280;61036;53.224;6.554;2023-02-28T00:18:01;103238.78;;;5.98;100.00
72896;BME280;61036;53.224;6.554;2023-02-28T00:20:26;103229.06;;;5.90;100.00
72896;BME280;61036;53.224;6.554;2023-02-28T00:22:53;103234.19;;;6.06;100.00
72896;BME280;61036;53.224;6.554;2023-02-28T00:25:22;103235.09;;;6.03;100.00
72896;BME280;61036;53.224;6.554;2023-02-28T00:27:48;103219.03;;;6.05;100.00
72896;BME280;61036;53.224;6.554;2023-02-28T00:30:16;103218.97;;;6.08;100.00
72896;BME280;61036;53.224;6.554;2023-02-28T00:32:43;103221.72;;;6.05;100.00
72896;BME280;61036;53.224;6.554;2023-02-28T00:35:09;103222.34;;;6.17;100.00
72896;BME280;61036;53.224;6.554;2023-02-28T00:37:35;103225.94;;;6.16;100.00
72896;BME280;61036;53.224;6.554;2023-02-28T00:40:01;103229.53;;;6.15;100.00
72896;BME280;61036;53.224;6.554;2023-02-28T00:42:27;103226.94;;;6.11;100.00
72896;BME280;61036;53.224;6.554;2023-02-28T00:44:53;103229.47;;;6.20;100.00
72896;BME280;61036;53.224;6.554;2023-02-28T00:47:20;103236.66;;;6.16;100.00
72896;BME280;61036;53.224;6.554;2023-02-28T00:49:46;103227.72;;;6.17;100.00
72896;BME280;61036;53.224;6.554;2023-02-28T00:52:11;103233.94;;;6.18;100.00
72896;BME280;61036;53.224;6.554;2023-02-28T00:54:37;103223.25;;;6.16;100.00
72896;BME280;61036;53.224;6.554;2023-02-28T00:57:02;103226.84;;;6.17;100.00
72896;BME280;61036;53.224;6.554;2023-02-28T00:59:28;103226.78;;;6.18;100.00
72896;BME280;61036;53.224;6.554;2023-02-28T01:01:53;103223.25;;;6.18;100.00
72896;BME280;61036;53.224;6.554;2023-02-28T01:04:20;103222.25;;;6.22;100.00
72896;BME280;61036;53.224;6.554;2023-02-28T01:06:46;103219.03;;;6.05;100.00
72896;BME280;61036;53.224;6.554;2023-02-28T01:09:12;103228.13;;;5.94;100.00
72896;BME280;61036;53.224;6.554;2023-02-28T01:11:38;103222.66;;;6.01;100.00
72896;BME280;61036;53.224;6.554;2023-02-28T01:14:05;103220.47;;;6.23;100.00
72896;BME280;61036;53.224;6.554;2023-02-28T01:16:31;103216.03;;;6.22;100.00
72896;BME280;61036;53.224;6.554;2023-02-28T01:18:59;103214.16;;;6.27;100.00
72896;BME280;61036;53.224;6.554;2023-02-28T01:21:25;103212.34;;;6.29;100.00
72896;BME280;61036;53.224;6.554;2023-02-28T01:23:51;103213.31;;;6.23;100.00
72896;BME280;61036;53.224;6.554;2023-02-28T01:26:21;103213.22;;;6.29;100.00
72896;BME280;61036;53.224;6.554;2023-02-28T01:28:49;103215.16;;;6.19;100.00
72896;BME280;61036;53.224;6.554;2023-02-28T01:31:15;103217.16;;;6.08;100.00
72896;BME280;61036;53.224;6.554;2023-02-28T01:33:43;103214.50;;;6.07;100.00
72896;BME280;61036;53.224;6.554;2023-02-28T01:36:18;103216.41;;;6.00;100.00
72896;BME280;61036;53.224;6.554;2023-02-28T01:38:44;103212.19;;;5.85;100.00
72896;BME280;61036;53.224;6.554;2023-02-28T01:41:16;103220.31;;;6.30;100.00
72896;BME280;61036;53.224;6.554;2023-02-28T01:46:07;103211.41;;;6.28;100.00
72896;BME280;61036;53.224;6.554;2023-02-28T01:48:38;103209.50;;;6.36;100.00
72896;BME280;61036;53.224;6.554;2023-02-28T01:51:11;103203.31;;;6.31;100.00
72896;BME280;61036;53.224;6.554;2023-02-28T01:53:44;103198.84;;;6.33;100.00
72896;BME280;61036;53.224;6.554;2023-02-28T01:56:16;103189.34;;;6.17;100.00
72896;BME280;61036;53.224;6.554;2023-02-28T01:58:49;103190.09;;;6.22;100.00
72896;BME280;61036;53.224;6.554;2023-02-28T02:01:16;103189.28;;;6.18;100.00
72896;BME280;61036;53.224;6.554;2023-02-28T02:03:58;103181.06;;;6.29;100.00
72896;BME280;61036;53.224;6.554;2023-02-28T02:06:27;103182.34;;;6.08;100.00
72896;BME280;61036;53.224;6.554;2023-02-28T02:08:55;103180.56;;;6.07;100.00
72896;BME280;61036;53.224;6.554;2023-02-28T02:11:23;103180.53;;;6.09;100.00
72896;BME280;61036;53.224;6.554;2023-02-28T02:28:05;103181.88;;;6.31;100.00
72896;BME280;61036;53.224;6.554;2023-02-28T02:33:38;103167.47;;;6.38;100.00
72896;BME280;61036;53.224;6.554;2023-02-28T02:36:16;103168.44;;;6.34;100.00
72896;BME280;61036;53.224;6.554;2023-02-28T02:38:51;103169.28;;;6.38;100.00
72896;BME280;61036;53.224;6.554;2023-02-28T02:44:19;103168.38;;;6.37;100.00
72896;BME280;61036;53.224;6.554;2023-02-28T02:46:48;103166.00;;;6.22;100.00
72896;BME280;61036;53.224;6.554;2023-02-28T02:49:28;103168.53;;;6.30;100.00
72896;BME280;61036;53.224;6.554;2023-02-28T02:51:58;103172.84;;;6.38;100.00
72896;BME280;61036;53.224;6.554;2023-02-28T02:54:28;103177.44;;;6.30;100.00
72896;BME280;61036;53.224;6.554;2023-02-28T02:57:08;103173.91;;;6.30;100.00
72896;BME280;61036;53.224;6.554;2023-02-28T02:59:36;103185.09;;;6.05;100.00
72896;BME280;61036;53.224;6.554;2023-02-28T03:02:06;103187.94;;;5.94;100.00
72896;BME280;61036;53.224;6.554;2023-02-28T03:04:39;103183.59;;;5.86;100.00
72896;BME280;61036;53.224;6.554;2023-02-28T03:07:06;103192.56;;;5.83;100.00
72896;BME280;61036;53.224;6.554;2023-02-28T03:09:33;103189.16;;;5.73;100.00
72896;BME280;61036;53.224;6.554;2023-02-28T03:12:09;103185.81;;;5.61;100.00
72896;BME280;61036;53.224;6.554;2023-02-28T03:26:06;103199.97;;;5.67;100.00
72896;BME280;61036;53.224;6.554;2023-02-28T03:28:39;103192.44;;;5.37;100.00
72896;BME280;61036;53.224;6.554;2023-02-28T03:31:17;103196.97;;;5.32;100.00
72896;BME280;61036;53.224;6.554;2023-02-28T03:33:53;103192.50;;;5.34;100.00
72896;BME280;61036;53.224;6.554;2023-02-28T03:36:25;103194.53;;;5.18;100.00
72896;BME280;61036;53.224;6.554;2023-02-28T03:39:02;103194.34;;;5.30;100.00
72896;BME280;61036;53.224;6.554;2023-02-28T03:41:35;103197.19;;;5.18;100.00
72896;BME280;61036;53.224;6.554;2023-02-28T03:44:21;103198.03;;;5.21;100.00
72896;BME280;61036;53.224;6.554;2023-02-28T03:47:13;103193.63;;;5.17;100.00
72896;BME280;61036;53.224;6.554;2023-02-28T03:50:20;103197.13;;;5.24;100.00
72896;BME280;61036;53.224;6.554;2023-02-28T03:55:49;103207.25;;;5.00;100.00
72896;BME280;61036;53.224;6.554;2023-02-28T04:01:03;103202.50;;;4.53;100.00
72896;BME280;61036;53.224;6.554;2023-02-28T04:03:37;103196.31;;;4.48;100.00
72896;BME280;61036;53.224;6.554;2023-02-28T04:06:04;103201.59;;;4.55;100.00
72896;BME280;61036;53.224;6.554;2023-02-28T04:08:31;103206.63;;;4.80;100.00
72896;BME280;61036;53.224;6.554;2023-02-28T04:11:01;103207.72;;;4.64;100.00
72896;BME280;61036;53.224;6.554;2023-02-28T04:13:28;103204.34;;;4.48;100.00
72896;BME280;61036;53.224;6.554;2023-02-28T04:15:54;103209.56;;;4.57;100.00
72896;BME280;61036;53.224;6.554;2023-02-28T04:18:19;103209.66;;;4.51;100.00
72896;BME280;61036;53.224;6.554;2023-02-28T04:20:45;103208.53;;;4.70;100.00
72896;BME280;61036;53.224;6.554;2023-02-28T04:23:10;103211.78;;;4.21;100.00
72896;BME280;61036;53.224;6.554;2023-02-28T04:25:35;103205.28;;;4.42;100.00
72896;BME280;61036;53.224;6.554;2023-02-28T04:28:01;103208.16;;;4.24;100.00
72896;BME280;61036;53.224;6.554;2023-02-28T04:30:27;103211.41;;;4.53;100.00
72896;BME280;61036;53.224;6.554;2023-02-28T04:32:52;103214.97;;;4.52;100.00
72896;BME280;61036;53.224;6.554;2023-02-28T04:35:17;103209.94;;;4.25;100.00
72896;BME280;61036;53.224;6.554;2023-02-28T04:37:43;103220.53;;;4.34;100.00
72896;BME280;61036;53.224;6.554;2023-02-28T04:40:09;103216.25;;;4.18;100.00
72896;BME280;61036;53.224;6.554;2023-02-28T04:42:34;103215.06;;;4.45;100.00
72896;BME280;61036;53.224;6.554;2023-02-28T04:45:04;103208.84;;;4.44;100.00
72896;BME280;61036;53.224;6.554;2023-02-28T04:47:30;103210.84;;;4.24;100.00
72896;BME280;61036;53.224;6.554;2023-02-28T04:49:55;103213.72;;;4.02;100.00
72896;BME280;61036;53.224;6.554;2023-02-28T04:52:21;103220.84;;;4.02;100.00
72896;BME280;61036;53.224;6.554;2023-02-28T04:54:47;103221.69;;;4.05;100.00
72896;BME280;61036;53.224;6.554;2023-02-28T04:57:12;103217.22;;;4.10;100.00
72896;BME280;61036;53.224;6.554;2023-02-28T04:59:38;103215.44;;;4.08;100.00
72896;BME280;61036;53.224;6.554;2023-02-28T05:02:03;103209.31;;;3.97;100.00
72896;BME280;61036;53.224;6.554;2023-02-28T05:04:35;103213.75;;;3.99;100.00
72896;BME280;61036;53.224;6.554;2023-02-28T05:07:03;103211.22;;;3.85;100.00
72896;BME280;61036;53.224;6.554;2023-02-28T05:09:29;103213.63;;;4.11;100.00
72896;BME280;61036;53.224;6.554;2023-02-28T05:11:58;103212.94;;;3.94;100.00
72896;BME280;61036;53.224;6.554;2023-02-28T05:14:23;103216.53;;;3.88;100.00
72896;BME280;61036;53.224;6.554;2023-02-28T05:16:51;103215.59;;;3.94;100.00
72896;BME280;61036;53.224;6.554;2023-02-28T05:19:19;103207.66;;;3.86;100.00
72896;BME280;61036;53.224;6.554;2023-02-28T05:21:54;103211.25;;;3.82;100.00
72896;BME280;61036;53.224;6.554;2023-02-28T05:24:20;103217.56;;;3.74;100.00
72896;BME280;61036;53.224;6.554;2023-02-28T05:26:49;103215.75;;;3.77;100.00
72896;BME280;61036;53.224;6.554;2023-02-28T05:29:16;103216.66;;;3.76;100.00
72896;BME280;61036;53.224;6.554;2023-02-28T05:31:41;103227.41;;;3.61;100.00
72896;BME280;61036;53.224;6.554;2023-02-28T05:34:07;103218.25;;;3.91;100.00
72896;BME280;61036;53.224;6.554;2023-02-28T05:36:32;103228.09;;;3.87;100.00
72896;BME280;61036;53.224;6.554;2023-02-28T05:39:00;103217.41;;;3.87;100.00
72896;BME280;61036;53.224;6.554;2023-02-28T05:41:26;103222.72;;;3.90;100.00
72896;BME280;61036;53.224;6.554;2023-02-28T05:43:51;103229.16;;;3.68;100.00
72896;BME280;61036;53.224;6.554;2023-02-28T05:46:17;103228.34;;;3.57;100.00
72896;BME280;61036;53.224;6.554;2023-02-28T05:48:46;103233.59;;;3.66;100.00
72896;BME280;61036;53.224;6.554;2023-02-28T05:51:12;103236.25;;;3.71;100.00
72896;BME280;61036;53.224;6.554;2023-02-28T05:53:40;103227.19;;;3.92;100.00
72896;BME280;61036;53.224;6.554;2023-02-28T05:56:05;103224.50;;;3.90;100.00
72896;BME280;61036;53.224;6.554;2023-02-28T05:58:31;103227.41;;;3.61;100.00
72896;BME280;61036;53.224;6.554;2023-02-28T06:00:58;103233.66;;;3.60;100.00
72896;BME280;61036;53.224;6.554;2023-02-28T06:03:24;103235.50;;;3.49;100.00
72896;BME280;61036;53.224;6.554;2023-02-28T06:05:52;103232.88;;;3.44;100.00
72896;BME280;61036;53.224;6.554;2023-02-28T06:08:17;103240.81;;;3.52;100.00
72896;BME280;61036;53.224;6.554;2023-02-28T06:10:43;103234.50;;;3.68;100.00
72896;BME280;61036;53.224;6.554;2023-02-28T06:13:10;103229.88;;;3.88;100.00
72896;BME280;61036;53.224;6.554;2023-02-28T06:15:38;103236.22;;;3.77;100.00
72896;BME280;61036;53.224;6.554;2023-02-28T06:18:06;103239.03;;;3.54;100.00
72896;BME280;61036;53.224;6.554;2023-02-28T06:20:34;103244.31;;;3.60;100.00
72896;BME280;61036;53.224;6.554;2023-02-28T06:23:01;103238.00;;;3.75;100.00
72896;BME280;61036;53.224;6.554;2023-02-28T06:25:27;103246.06;;;3.70;100.00
72896;BME280;61036;53.224;6.554;2023-02-28T06:27:54;103248.59;;;3.84;100.00
72896;BME280;61036;53.224;6.554;2023-02-28T06:30:20;103256.66;;;3.79;100.00
72896;BME280;61036;53.224;6.554;2023-02-28T06:32:50;103247.88;;;3.60;100.00
72896;BME280;61036;53.224;6.554;2023-02-28T06:35:15;103252.44;;;3.44;100.00
72896;BME280;61036;53.224;6.554;2023-02-28T06:37:41;103264.06;;;3.36;100.00
72896;BME280;61036;53.224;6.554;2023-02-28T06:40:09;103261.31;;;3.50;100.00
72896;BME280;61036;53.224;6.554;2023-02-28T06:42:35;103262.91;;;3.77;100.00
72896;BME280;61036;53.224;6.554;2023-02-28T06:45:01;103270.16;;;3.55;100.00
72896;BME280;61036;53.224;6.554;2023-02-28T06:47:30;103273.81;;;3.41;100.00
72896;BME280;61036;53.224;6.554;2023-02-28T06:49:58;103277.28;;;3.53;100.00
72896;BME280;61036;53.224;6.554;2023-02-28T06:52:26;103280.81;;;3.55;100.00
72896;BME280;61036;53.224;6.554;2023-02-28T06:54:52;103289.69;;;3.60;100.00
72896;BME280;61036;53.224;6.554;2023-02-28T06:57:32;103292.13;;;3.90;100.00
72896;BME280;61036;53.224;6.554;2023-02-28T06:59:59;103291.56;;;3.47;100.00
72896;BME280;61036;53.224;6.554;2023-02-28T07:02:26;103289.78;;;3.40;100.00
72896;BME280;61036;53.224;6.554;2023-02-28T07:04:51;103288.00;;;3.42;100.00
72896;BME280;61036;53.224;6.554;2023-02-28T07:07:17;103290.75;;;3.31;100.00
72896;BME280;61036;53.224;6.554;2023-02-28T07:09:42;103295.28;;;3.17;100.00
72896;BME280;61036;53.224;6.554;2023-02-28T07:12:08;103296.13;;;3.24;100.00
72896;BME280;61036;53.224;6.554;2023-02-28T07:14:33;103301.50;;;3.13;100.00
72896;BME280;61036;53.224;6.554;2023-02-28T07:16:59;103296.19;;;3.11;100.00
72896;BME280;61036;53.224;6.554;2023-02-28T07:19:24;103304.97;;;3.30;100.00
72896;BME280;61036;53.224;6.554;2023-02-28T07:21:50;103302.47;;;3.01;100.00
72896;BME280;61036;53.224;6.554;2023-02-28T07:24:15;103307.78;;;3.04;100.00
72896;BME280;61036;53.224;6.554;2023-02-28T07:26:43;103313.97;;;3.11;100.00
72896;BME280;61036;53.224;6.554;2023-02-28T07:29:10;103314.81;;;3.22;100.00
72896;BME280;61036;53.224;6.554;2023-02-28T07:31:36;103305.97;;;3.06;100.00
72896;BME280;61036;53.224;6.554;2023-02-28T07:34:01;103305.94;;;3.12;100.00
72896;BME280;61036;53.224;6.554;2023-02-28T07:36:28;103307.78;;;3.04;100.00
72896;BME280;61036;53.224;6.554;2023-02-28T07:38:53;103313.94;;;3.14;100.00
72896;BME280;61036;53.224;6.554;2023-02-28T07:41:21;103306.78;;;3.28;100.00
72896;BME280;61036;53.224;6.554;2023-02-28T07:43:47;103317.19;;;3.71;100.00
72896;BME280;61036;53.224;6.554;2023-02-28T07:46:14;103314.69;;;3.43;100.00
72896;BME280;61036;53.224;6.554;2023-02-28T07:48:41;103311.25;;;3.23;100.00
72896;BME280;61036;53.224;6.554;2023-02-28T07:51:06;103311.16;;;3.43;100.00
72896;BME280;61036;53.224;6.554;2023-02-28T07:53:32;103310.09;;;3.69;100.00
72896;BME280;61036;53.224;6.554;2023-02-28T07:56:01;103310.00;;;3.82;100.00
72896;BME280;61036;53.224;6.554;2023-02-28T07:58:28;103299.25;;;3.92;100.00
72896;BME280;61036;53.224;6.554;2023-02-28T08:00:54;103294.56;;;4.20;100.00
72896;BME280;61036;53.224;6.554;2023-02-28T08:03:21;103294.75;;;3.97;100.00
72896;BME280;61036;53.224;6.554;2023-02-28T08:05:47;103299.38;;;3.75;100.00
72896;BME280;61036;53.224;6.554;2023-02-28T08:08:14;103308.81;;;4.17;100.00
72896;BME280;61036;53.224;6.554;2023-02-28T08:10:40;103302.72;;;4.03;100.00
72896;BME280;61036;53.224;6.554;2023-02-28T08:13:05;103304.44;;;4.08;100.00
72896;BME280;61036;53.224;6.554;2023-02-28T08:15:31;103304.66;;;3.82;100.00
72896;BME280;61036;53.224;6.554;2023-02-28T08:17:57;103314.22;;;4.11;100.00
72896;BME280;61036;53.224;6.554;2023-02-28T08:20:24;103315.38;;;4.75;100.00
72896;BME280;61036;53.224;6.554;2023-02-28T08:22:49;103299.22;;;4.84;100.00
72896;BME280;61036;53.224;6.554;2023-02-28T08:25:15;103294.31;;;4.46;100.00
72896;BME280;61036;53.224;6.554;2023-02-28T08:27:43;103308.88;;;4.12;100.00
72896;BME280;61036;53.224;6.554;2023-02-28T08:30:13;103309.56;;;4.34;100.00
72896;BME280;61036;53.224;6.554;2023-02-28T08:32:39;103304.31;;;4.25;100.00
72896;BME280;61036;53.224;6.554;2023-02-28T08:35:05;103306.09;;;4.23;100.00
72896;BME280;61036;53.224;6.554;2023-02-28T08:37:31;103309.28;;;4.64;100.00
72896;BME280;61036;53.224;6.554;2023-02-28T08:39:57;103312.16;;;4.42;100.00
72896;BME280;61036;53.224;6.554;2023-02-28T08:42:23;103316.59;;;4.42;100.00
72896;BME280;61036;53.224;6.554;2023-02-28T08:44:49;103324.56;;;4.49;100.00
72896;BME280;61036;53.224;6.554;2023-02-28T08:47:14;103320.13;;;4.47;100.00
72896;BME280;61036;53.224;6.554;2023-02-28T08:49:40;103325.16;;;4.79;100.00
72896;BME280;61036;53.224;6.554;2023-02-28T08:52:05;103322.28;;;4.96;100.00
72896;BME280;61036;53.224;6.554;2023-02-28T08:54:31;103316.50;;;5.31;100.00
72896;BME280;61036;53.224;6.554;2023-02-28T08:56:58;103320.84;;;4.64;100.00
72896;BME280;61036;53.224;6.554;2023-02-28T08:59:24;103325.19;;;4.76;100.00
72896;BME280;61036;53.224;6.554;2023-02-28T09:01:49;103329.47;;;4.91;100.00
72896;BME280;61036;53.224;6.554;2023-02-28T09:04:15;103325.69;;;5.10;100.00
72896;BME280;61036;53.224;6.554;2023-02-28T09:06:40;103318.94;;;4.77;100.00
72896;BME280;61036;53.224;6.554;2023-02-28T09:09:06;103319.78;;;5.50;100.00
72896;BME280;61036;53.224;6.554;2023-02-28T09:11:34;103316.84;;;5.02;100.00
72896;BME280;61036;53.224;6.554;2023-02-28T09:14:00;103321.25;;;5.09;100.00
72896;BME280;61036;53.224;6.554;2023-02-28T09:16:29;103325.78;;;5.01;100.00
72896;BME280;61036;53.224;6.554;2023-02-28T09:18:56;103332.09;;;4.97;100.00
72896;BME280;61036;53.224;6.554;2023-02-28T09:21:22;103324.78;;;5.74;100.00
72896;BME280;61036;53.224;6.554;2023-02-28T09:23:49;103311.06;;;6.98;100.00
72896;BME280;61036;53.224;6.554;2023-02-28T09:26:23;103304.31;;;7.98;100.00
72896;BME280;61036;53.224;6.554;2023-02-28T09:28:50;103295.41;;;7.19;100.00
72896;BME280;61036;53.224;6.554;2023-02-28T09:31:21;103295.97;;;6.91;100.00
72896;BME280;61036;53.224;6.554;2023-02-28T09:33:49;103299.56;;;6.45;100.00
72896;BME280;61036;53.224;6.554;2023-02-28T09:36:15;103295.06;;;6.47;100.00
72896;BME280;61036;53.224;6.554;2023-02-28T09:38:41;103287.81;;;6.97;100.00
72896;BME280;61036;53.224;6.554;2023-02-28T09:41:16;103287.41;;;7.95;100.00
72896;BME280;61036;53.224;6.554;2023-02-28T09:43:46;103282.66;;;7.69;100.00
72896;BME280;61036;53.224;6.554;2023-02-28T09:46:29;103280.94;;;8.70;100.00
72896;BME280;61036;53.224;6.554;2023-02-28T09:48:56;103292.16;;;7.45;100.00
72896;BME280;61036;53.224;6.554;2023-02-28T09:51:43;103292.22;;;8.52;100.00
72896;BME280;61036;53.224;6.554;2023-02-28T09:54:17;103293.66;;;7.95;100.00
72896;BME280;61036;53.224;6.554;2023-02-28T09:56:50;103292.13;;;7.46;100.00
72896;BME280;61036;53.224;6.554;2023-02-28T10:04:52;103275.63;;;14.34;100.00
72896;BME280;61036;53.224;6.554;2023-02-28T10:07:29;103282.97;;;10.07;100.00
72896;BME280;61036;53.224;6.554;2023-02-28T10:10:06;103281.84;;;12.88;100.00
72896;BME280;61036;53.224;6.554;2023-02-28T10:12:41;103271.91;;;17.73;82.31
72896;BME280;61036;53.224;6.554;2023-02-28T10:15:14;103270.69;;;17.78;79.02
72896;BME280;61036;53.224;6.554;2023-02-28T10:17:43;103281.63;;;15.08;81.57
72896;BME280;61036;53.224;6.554;2023-02-28T10:20:17;103276.53;;;16.13;85.08
72896;BME280;61036;53.224;6.554;2023-02-28T10:25:23;103276.22;;;12.72;91.25
72896;BME280;61036;53.224;6.554;2023-02-28T10:27:50;103272.19;;;14.65;80.57
72896;BME280;61036;53.224;6.554;2023-02-28T10:30:18;103279.19;;;12.04;95.83
72896;BME280;61036;53.224;6.554;2023-02-28T10:32:50;103279.25;;;13.62;93.16
72896;BME280;61036;53.224;6.554;2023-02-28T10:35:19;103284.44;;;9.91;100.00
72896;BME280;61036;53.224;6.554;2023-02-28T10:37:48;103283.56;;;8.41;100.00
72896;BME280;61036;53.224;6.554;2023-02-28T10:43:04;103286.19;;;7.71;100.00
72896;BME280;61036;53.224;6.554;2023-02-28T10:45:35;103290.19;;;7.90;100.00
72896;BME280;61036;53.224;6.554;2023-02-28T10:58:57;103281.78;;;8.40;100.00
72896;BME280;61036;53.224;6.554;2023-02-28T11:03:59;103282.91;;;7.95;100.00
72896;BME280;61036;53.224;6.554;2023-02-28T11:06:33;103277.84;;;7.82;100.00
72896;BME280;61036;53.224;6.554;2023-02-28T11:09:02;103278.88;;;7.77;100.00
72896;BME280;61036;53.224;6.554;2023-02-28T11:11:31;103267.78;;;7.54;100.00
72896;BME280;61036;53.224;6.554;2023-02-28T11:14:06;103272.47;;;7.04;100.00
72896;BME280;61036;53.224;6.554;2023-02-28T11:16:43;103271.69;;;7.78;100.00
72896;BME280;61036;53.224;6.554;2023-02-28T11:19:28;103271.22;;;7.96;100.00
72896;BME280;61036;53.224;6.554;2023-02-28T11:21:58;103263.63;;;8.14;100.00
72896;BME280;61036;53.224;6.554;2023-02-28T11:24:34;103264.81;;;8.36;100.00
72896;BME280;61036;53.224;6.554;2023-02-28T11:27:00;103269.69;;;7.86;100.00
72896;BME280;61036;53.224;6.554;2023-02-28T11:29:31;103268.69;;;7.90;100.00
72896;BME280;61036;53.224;6.554;2023-02-28T11:34:31;103263.59;;;7.79;100.00
72896;BME280;61036;53.224;6.554;2023-02-28T11:36:59;103256.00;;;8.31;100.00
72896;BME280;61036;53.224;6.554;2023-02-28T11:39:26;103255.97;;;7.98;100.00
72896;BME280;61036;53.224;6.554;2023-02-28T11:42:10;103264.34;;;8.20;100.00
72896;BME280;61036;53.224;6.554;2023-02-28T11:47:43;103259.06;;;7.82;100.00
72896;BME280;61036;53.224;6.554;2023-02-28T11:52:54;103259.28;;;7.72;100.00
72896;BME280;61036;53.224;6.554;2023-02-28T12:00:35;103251.34;;;8.38;100.00
72896;BME280;61036;53.224;6.554;2023-02-28T12:05:46;103249.72;;;7.61;100.00
72896;BME280;61036;53.224;6.554;2023-02-28T12:19:51;103237.44;;;8.22;100.00
72896;BME280;61036;53.224;6.554;2023-02-28T12:22:36;103237.78;;;7.74;100.00
72896;BME280;61036;53.224;6.554;2023-02-28T12:26:07;103234.22;;;7.72;100.00
72896;BME280;61036;53.224;6.554;2023-02-28T12:28:11;103227.13;;;8.05;100.00
72896;BME280;61036;53.224;6.554;2023-02-28T12:31:01;103230.75;;;7.67;100.00
72896;BME280;61036;53.224;6.554;2023-02-28T12:33:34;103220.41;;;7.51;100.00
72896;BME280;61036;53.224;6.554;2023-02-28T12:36:07;103225.47;;;7.26;100.00
72896;BME280;61036;53.224;6.554;2023-02-28T12:38:45;103218.81;;;7.80;100.00
72896;BME280;61036;53.224;6.554;2023-02-28T12:41:16;103221.03;;;7.25;100.00
72896;BME280;61036;53.224;6.554;2023-02-28T12:43:57;103219.16;;;7.66;100.00
72896;BME280;61036;53.224;6.554;2023-02-28T12:48:59;103211.00;;;7.71;100.00
72896;BME280;61036;53.224;6.554;2023-02-28T12:51:28;103207.28;;;8.09;100.00
72896;BME280;61036;53.224;6.554;2023-02-28T12:56:56;103207.16;;;8.48;100.00
72896;BME280;61036;53.224;6.554;2023-02-28T12:59:33;103206.38;;;8.10;100.00
72896;BME280;61036;53.224;6.554;2023-02-28T13:10:58;103186.13;;;8.30;100.00
72896;BME280;61036;53.224;6.554;2023-02-28T13:13:26;103177.72;;;7.76;100.00
72896;BME280;61036;53.224;6.554;2023-02-28T13:16:03;103178.25;;;8.23;100.00
72896;BME280;61036;53.224;6.554;2023-02-28T13:18:50;103178.59;;;8.11;100.00
72896;BME280;61036;53.224;6.554;2023-02-28T13:21:24;103180.66;;;8.97;100.00
72896;BME280;61036;53.224;6.554;2023-02-28T13:26:22;103169.13;;;8.62;100.00
72896;BME280;61036;53.224;6.554;2023-02-28T13:28:59;103180.09;;;8.54;100.00
72896;BME280;61036;53.224;6.554;2023-02-28T13:31:25;103179.97;;;8.59;100.00
72896;BME280;61036;53.224;6.554;2023-02-28T13:36:27;103162.16;;;7.89;100.00
72896;BME280;61036;53.224;6.554;2023-02-28T13:39:44;103172.84;;;7.91;100.00
72896;BME280;61036;53.224;6.554;2023-02-28T13:41:49;103168.28;;;8.27;100.00
72896;BME280;61036;53.224;6.554;2023-02-28T13:44:22;103168.81;;;7.74;100.00
72896;BME280;61036;53.224;6.554;2023-02-28T14:05:45;103178.69;;;6.99;100.00
72896;BME280;61036;53.224;6.554;2023-02-28T14:08:25;103173.56;;;7.27;100.00
72896;BME280;61036;53.224;6.554;2023-02-28T14:11:05;103163.75;;;7.96;100.00
72896;BME280;61036;53.224;6.554;2023-02-28T14:16:10;103166.88;;;8.46;100.00
72896;BME280;61036;53.224;6.554;2023-02-28T14:18:41;103165.88;;;8.80;100.00
72896;BME280;61036;53.224;6.554;2023-02-28T14:21:16;103165.81;;;8.52;100.00
72896;BME280;61036;53.224;6.554;2023-02-28T14:34:53;103160.88;;;8.04;100.00
72896;BME280;61036;53.224;6.554;2023-02-28T14:37:27;103157.00;;;7.46;100.00
72896;BME280;61036;53.224;6.554;2023-02-28T14:39:54;103157.66;;;7.18;100.00
72896;BME280;61036;53.224;6.554;2023-02-28T14:42:34;103155.09;;;7.51;100.00
72896;BME280;61036;53.224;6.554;2023-02-28T14:45:01;103160.38;;;8.21;100.00
72896;BME280;61036;53.224;6.554;2023-02-28T14:47:30;103158.69;;;7.86;100.00
72896;BME280;61036;53.224;6.554;2023-02-28T14:49:58;103164.00;;;7.87;100.00
72896;BME280;61036;53.224;6.554;2023-02-28T14:52:26;103159.50;;;7.88;100.00
72896;BME280;61036;53.224;6.554;2023-02-28T14:54:58;103161.50;;;8.14;100.00
72896;BME280;61036;53.224;6.554;2023-02-28T14:57:29;103156.91;;;8.17;100.00
72896;BME280;61036;53.224;6.554;2023-02-28T15:00:16;103158.88;;;8.11;97.67
72896;BME280;61036;53.224;6.554;2023-02-28T15:02:43;103150.72;;;7.83;100.00
72896;BME280;61036;53.224;6.554;2023-02-28T15:07:37;103147.13;;;8.15;100.00
72896;BME280;61036;53.224;6.554;2023-02-28T15:12:40;103152.28;;;7.91;100.00
72896;BME280;61036;53.224;6.554;2023-02-28T15:15:17;103149.59;;;8.22;100.00
72896;BME280;61036;53.224;6.554;2023-02-28T15:17:50;103149.16;;;8.07;100.00
72896;BME280;61036;53.224;6.554;2023-02-28T15:20:18;103151.81;;;8.41;100.00
72896;BME280;61036;53.224;6.554;2023-02-28T15:22:46;103148.72;;;8.55;100.00
72896;BME280;61036;53.224;6.554;2023-02-28T15:25:15;103146.16;;;8.17;100.00
72896;BME280;61036;53.224;6.554;2023-02-28T15:27:45;103149.91;;;8.12;100.00
72896;BME280;61036;53.224;6.554;2023-02-28T15:30:21;103148.34;;;7.70;100.00